sensor_id;sensor_type;location;lat;lon;timestamp;pressure;altitude;pressure_sealevel;temperature;humidity
69766;BME280;57039;48.014;21.384;2024-02-15T00:01:00;101348.97;;;2.07;100.00
69766;BME280;57039;48.014;21.384;2024-02-15T00:02:03;101347.25;;;2.01;100.00
69766;BME280;57039;48.014;21.384;2024-02-15T00:03:06;101343.84;;;1.96;100.00
69766;BME280;57039;48.014;21.384;2024-02-15T00:04:33;101342.97;;;1.98;100.00
69766;BME280;57039;48.014;21.384;2024-02-15T00:05:36;101352.44;;;1.99;100.00
69766;BME280;57039;48.014;21.384;2024-02-15T00:06:39;101356.78;;;1.96;100.00
69766;BME280;57039;48.014;21.384;2024-02-15T00:07:42;101346.41;;;1.94;100.00
69766;BME280;57039;48.014;21.384;2024-02-15T00:08:46;101339.59;;;1.84;100.00
69766;BME280;57039;48.014;21.384;2024-02-15T00:09:49;101341.31;;;1.85;100.00
69766;BME280;57039;48.014;21.384;2024-02-15T00:10:52;101335.31;;;1.83;100.00
69766;BME280;57039;48.014;21.384;2024-02-15T00:11:56;101352.50;;;1.90;100.00
69766;BME280;57039;48.014;21.384;2024-02-15T00:12:59;101351.63;;;1.88;100.00
69766;BME280;57039;48.014;21.384;2024-02-15T00:14:01;101349.03;;;1.88;100.00
69766;BME280;57039;48.014;21.384;2024-02-15T00:15:04;101355.13;;;1.86;100.00
69766;BME280;57039;48.014;21.384;2024-02-15T00:16:07;101346.47;;;1.90;100.00
69766;BME280;57039;48.014;21.384;2024-02-15T00:17:10;101348.16;;;1.94;100.00
69766;BME280;57039;48.014;21.384;2024-02-15T00:18:15;101349.03;;;1.91;100.00
69766;BME280;57039;48.014;21.384;2024-02-15T00:19:18;101355.09;;;1.87;100.00
69766;BME280;57039;48.014;21.384;2024-02-15T00:20:21;101351.66;;;1.87;100.00
69766;BME280;57039;48.014;21.384;2024-02-15T00:21:24;101344.78;;;1.86;100.00
69766;BME280;57039;48.014;21.384;2024-02-15T00:22:27;101349.06;;;1.82;100.00
69766;BME280;57039;48.014;21.384;2024-02-15T00:23:30;101348.22;;;1.86;100.00
69766;BME280;57039;48.014;21.384;2024-02-15T00:24:37;101349.09;;;1.83;100.00
69766;BME280;57039;48.014;21.384;2024-02-15T00:25:40;101349.06;;;1.82;100.00
69766;BME280;57039;48.014;21.384;2024-02-15T00:26:47;101347.38;;;1.79;100.00
69766;BME280;57039;48.014;21.384;2024-02-15T00:27:50;101332.78;;;1.69;100.00
69766;BME280;57039;48.014;21.384;2024-02-15T00:28:53;101347.38;;;1.78;100.00
69766;BME280;57039;48.014;21.384;2024-02-15T00:29:56;101349.13;;;1.77;100.00
69766;BME280;57039;48.014;21.384;2024-02-15T00:30:59;101347.38;;;1.78;100.00
69766;BME280;57039;48.014;21.384;2024-02-15T00:32:02;101347.38;;;1.78;100.00
69766;BME280;57039;48.014;21.384;2024-02-15T00:33:09;101349.06;;;1.82;100.00
69766;BME280;57039;48.014;21.384;2024-02-15T00:34:12;101349.09;;;1.80;100.00
69766;BME280;57039;48.014;21.384;2024-02-15T00:35:15;101348.28;;;1.74;100.00
69766;BME280;57039;48.014;21.384;2024-02-15T00:36:18;101354.38;;;1.60;100.00
69766;BME280;57039;48.014;21.384;2024-02-15T00:37:21;101350.91;;;1.63;100.00
69766;BME280;57039;48.014;21.384;2024-02-15T00:38:24;101347.50;;;1.56;100.00
69766;BME280;57039;48.014;21.384;2024-02-15T00:39:27;101354.41;;;1.48;100.00
69766;BME280;57039;48.014;21.384;2024-02-15T00:40:30;101353.53;;;1.52;100.00
69766;BME280;57039;48.014;21.384;2024-02-15T00:41:33;101354.41;;;1.56;100.00
69766;BME280;57039;48.014;21.384;2024-02-15T00:42:39;101352.63;;;1.61;100.00
69766;BME280;57039;48.014;21.384;2024-02-15T00:43:42;101352.66;;;1.63;100.00
69766;BME280;57039;48.014;21.384;2024-02-15T00:44:45;101356.94;;;1.65;100.00
69766;BME280;57039;48.014;21.384;2024-02-15T00:45:48;101352.63;;;1.64;100.00
69766;BME280;57039;48.014;21.384;2024-02-15T00:46:51;101354.34;;;1.65;100.00
69766;BME280;57039;48.014;21.384;2024-02-15T00:47:53;101355.22;;;1.61;100.00
69766;BME280;57039;48.014;21.384;2024-02-15T00:48:59;101356.97;;;1.62;100.00
69766;BME280;57039;48.014;21.384;2024-02-15T00:50:03;101357.78;;;1.64;100.00
69766;BME280;57039;48.014;21.384;2024-02-15T00:51:06;101356.09;;;1.65;100.00
69766;BME280;57039;48.014;21.384;2024-02-15T00:52:09;101353.47;;;1.66;100.00
69766;BME280;57039;48.014;21.384;2024-02-15T00:53:12;101355.22;;;1.66;100.00
69766;BME280;57039;48.014;21.384;2024-02-15T00:54:15;101353.50;;;1.68;100.00
69766;BME280;57039;48.014;21.384;2024-02-15T00:55:18;101352.59;;;1.72;100.00
69766;BME280;57039;48.014;21.384;2024-02-15T00:56:22;101336.28;;;1.59;100.00
69766;BME280;57039;48.014;21.384;2024-02-15T00:57:26;101351.72;;;1.73;100.00
69766;BME280;57039;48.014;21.384;2024-02-15T00:58:30;101336.28;;;1.62;100.00
69766;BME280;57039;48.014;21.384;2024-02-15T00:59:32;101341.41;;;1.67;100.00
69766;BME280;57039;48.014;21.384;2024-02-15T01:00:39;101350.00;;;1.72;100.00
69766;BME280;57039;48.014;21.384;2024-02-15T01:01:42;101350.88;;;1.74;100.00
69766;BME280;57039;48.014;21.384;2024-02-15T01:02:45;101348.25;;;1.78;100.00
69766;BME280;57039;48.014;21.384;2024-02-15T01:03:49;101350.84;;;1.80;100.00
69766;BME280;57039;48.014;21.384;2024-02-15T01:04:51;101349.94;;;1.84;100.00
69766;BME280;57039;48.014;21.384;2024-02-15T01:05:56;101311.25;;;1.61;100.00
69766;BME280;57039;48.014;21.384;2024-02-15T01:06:59;101349.94;;;1.86;100.00
69766;BME280;57039;48.014;21.384;2024-02-15T01:08:02;101351.63;;;1.90;100.00
69766;BME280;57039;48.014;21.384;2024-02-15T01:09:05;101341.31;;;1.85;100.00
69766;BME280;57039;48.014;21.384;2024-02-15T01:10:08;101357.66;;;1.90;100.00
69766;BME280;57039;48.014;21.384;2024-02-15T01:11:11;101363.72;;;1.88;100.00
69766;BME280;57039;48.014;21.384;2024-02-15T01:12:16;101357.69;;;1.87;100.00
69766;BME280;57039;48.014;21.384;2024-02-15T01:13:18;101357.69;;;1.87;100.00
69766;BME280;57039;48.014;21.384;2024-02-15T01:14:22;101328.41;;;1.76;100.00
69766;BME280;57039;48.014;21.384;2024-02-15T01:15:24;101356.81;;;1.88;100.00
69766;BME280;57039;48.014;21.384;2024-02-15T01:16:28;101351.69;;;1.80;100.00
69766;BME280;57039;48.014;21.384;2024-02-15T01:17:31;101358.59;;;1.80;100.00
69766;BME280;57039;48.014;21.384;2024-02-15T01:18:34;101355.19;;;1.67;100.00
69766;BME280;57039;48.014;21.384;2024-02-15T01:19:37;101350.91;;;1.66;100.00
69766;BME280;57039;48.014;21.384;2024-02-15T01:20:41;101350.88;;;1.69;100.00
69766;BME280;57039;48.014;21.384;2024-02-15T01:21:44;101355.19;;;1.72;100.00
69766;BME280;57039;48.014;21.384;2024-02-15T01:22:49;101350.03;;;1.69;100.00
69766;BME280;57039;48.014;21.384;2024-02-15T01:23:54;101333.69;;;1.59;100.00
69766;BME280;57039;48.014;21.384;2024-02-15T01:24:57;101350.88;;;1.71;100.00
69766;BME280;57039;48.014;21.384;2024-02-15T01:26:00;101346.56;;;1.71;100.00
69766;BME280;57039;48.014;21.384;2024-02-15T01:27:04;101342.22;;;1.75;100.00
69766;BME280;57039;48.014;21.384;2024-02-15T01:28:08;101345.69;;;1.72;100.00
69766;BME280;57039;48.014;21.384;2024-02-15T01:29:11;101340.53;;;1.71;100.00
69766;BME280;57039;48.014;21.384;2024-02-15T01:30:15;101331.87;;;1.73;100.00
69766;BME280;57039;48.014;21.384;2024-02-15T01:31:17;101333.62;;;1.74;100.00
69766;BME280;57039;48.014;21.384;2024-02-15T01:32:20;101331.03;;;1.70;100.00
69766;BME280;57039;48.014;21.384;2024-02-15T01:33:23;101337.06;;;1.72;100.00
69766;BME280;57039;48.014;21.384;2024-02-15T01:34:26;101341.41;;;1.71;100.00
69766;BME280;57039;48.014;21.384;2024-02-15T01:35:30;101325.06;;;1.63;100.00
69766;BME280;57039;48.014;21.384;2024-02-15T01:36:33;101339.69;;;1.69;100.00
69766;BME280;57039;48.014;21.384;2024-02-15T01:37:36;101334.53;;;1.61;100.00
69766;BME280;57039;48.014;21.384;2024-02-15T01:38:39;101333.69;;;1.57;100.00
69766;BME280;57039;48.014;21.384;2024-02-15T01:39:42;101331.97;;;1.56;100.00
69766;BME280;57039;48.014;21.384;2024-02-15T01:40:47;101337.12;;;1.58;100.00
69766;BME280;57039;48.014;21.384;2024-02-15T01:41:49;101331.97;;;1.59;100.00
69766;BME280;57039;48.014;21.384;2024-02-15T01:42:59;101336.34;;;1.37;100.00
69766;BME280;57039;48.014;21.384;2024-02-15T01:44:03;101336.34;;;1.44;100.00
69766;BME280;57039;48.014;21.384;2024-02-15T01:45:06;101334.59;;;1.53;100.00
69766;BME280;57039;48.014;21.384;2024-02-15T01:46:10;101337.16;;;1.56;100.00
69766;BME280;57039;48.014;21.384;2024-02-15T01:47:13;101342.34;;;1.56;100.00
69766;BME280;57039;48.014;21.384;2024-02-15T01:48:17;101338.00;;;1.60;100.00
69766;BME280;57039;48.014;21.384;2024-02-15T01:49:21;101338.00;;;1.52;100.00
69766;BME280;57039;48.014;21.384;2024-02-15T01:50:25;101336.34;;;1.45;100.00
69766;BME280;57039;48.014;21.384;2024-02-15T01:51:29;101333.72;;;1.51;100.00
69766;BME280;57039;48.014;21.384;2024-02-15T01:52:31;101342.34;;;1.56;100.00
69766;BME280;57039;48.014;21.384;2024-02-15T01:53:35;101336.34;;;1.50;100.00
69766;BME280;57039;48.014;21.384;2024-02-15T01:54:38;101264.16;;;1.01;100.00
69766;BME280;57039;48.014;21.384;2024-02-15T01:55:41;101337.16;;;1.53;100.00
69766;BME280;57039;48.014;21.384;2024-02-15T01:56:44;101343.16;;;1.55;100.00
69766;BME280;57039;48.014;21.384;2024-02-15T01:57:48;101341.50;;;1.48;100.00
69766;BME280;57039;48.014;21.384;2024-02-15T01:58:51;101339.75;;;1.49;100.00
69766;BME280;57039;48.014;21.384;2024-02-15T01:59:54;101338.91;;;1.51;100.00
69766;BME280;57039;48.014;21.384;2024-02-15T02:00:58;101340.62;;;1.51;100.00
69766;BME280;57039;48.014;21.384;2024-02-15T02:02:04;101332.06;;;1.41;100.00
69766;BME280;57039;48.014;21.384;2024-02-15T02:03:13;101338.94;;;1.39;100.00
69766;BME280;57039;48.014;21.384;2024-02-15T02:04:17;101343.25;;;1.42;100.00
69766;BME280;57039;48.014;21.384;2024-02-15T02:05:20;101334.63;;;1.40;100.00
69766;BME280;57039;48.014;21.384;2024-02-15T02:06:22;101337.22;;;1.44;100.00
69766;BME280;57039;48.014;21.384;2024-02-15T02:07:27;101342.37;;;1.43;100.00
69766;BME280;57039;48.014;21.384;2024-02-15T02:08:30;101325.19;;;1.35;100.00
69766;BME280;57039;48.014;21.384;2024-02-15T02:09:33;101334.63;;;1.41;100.00
69766;BME280;57039;48.014;21.384;2024-02-15T02:10:39;101332.03;;;1.46;100.00
69766;BME280;57039;48.014;21.384;2024-02-15T02:11:46;101333.75;;;1.47;100.00
69766;BME280;57039;48.014;21.384;2024-02-15T02:12:49;101322.56;;;1.37;100.00
69766;BME280;57039;48.014;21.384;2024-02-15T02:13:53;101335.50;;;1.39;100.00
69766;BME280;57039;48.014;21.384;2024-02-15T02:14:55;101332.94;;;1.39;100.00
69766;BME280;57039;48.014;21.384;2024-02-15T02:15:58;101333.75;;;1.42;100.00
69766;BME280;57039;48.014;21.384;2024-02-15T02:17:13;101332.06;;;1.41;100.00
69766;BME280;57039;48.014;21.384;2024-02-15T02:18:16;101328.59;;;1.41;100.00
69766;BME280;57039;48.014;21.384;2024-02-15T02:19:19;101334.66;;;1.38;100.00
69766;BME280;57039;48.014;21.384;2024-02-15T02:20:22;101276.22;;;1.05;100.00
69766;BME280;57039;48.014;21.384;2024-02-15T02:21:26;101332.09;;;1.30;100.00
69766;BME280;57039;48.014;21.384;2024-02-15T02:22:29;101337.25;;;1.32;100.00
69766;BME280;57039;48.014;21.384;2024-02-15T02:23:35;101327.75;;;1.34;100.00
69766;BME280;57039;48.014;21.384;2024-02-15T02:26:01;101332.09;;;1.32;100.00
69766;BME280;57039;48.014;21.384;2024-02-15T02:27:05;101328.63;;;1.33;100.00
69766;BME280;57039;48.014;21.384;2024-02-15T02:28:10;101330.34;;;1.34;100.00
69766;BME280;57039;48.014;21.384;2024-02-15T02:29:15;101332.09;;;1.30;100.00
69766;BME280;57039;48.014;21.384;2024-02-15T02:30:20;101342.41;;;1.30;100.00
69766;BME280;57039;48.014;21.384;2024-02-15T02:31:25;101337.28;;;1.26;100.00
69766;BME280;57039;48.014;21.384;2024-02-15T02:32:27;101335.56;;;1.26;100.00
69766;BME280;57039;48.014;21.384;2024-02-15T02:33:31;101337.25;;;1.27;100.00
69766;BME280;57039;48.014;21.384;2024-02-15T02:34:34;101332.97;;;1.29;100.00
69766;BME280;57039;48.014;21.384;2024-02-15T02:35:37;101337.28;;;1.29;100.00
69766;BME280;57039;48.014;21.384;2024-02-15T02:36:46;101340.69;;;1.31;100.00
69766;BME280;57039;48.014;21.384;2024-02-15T02:37:50;101340.66;;;1.37;100.00
69766;BME280;57039;48.014;21.384;2024-02-15T02:38:56;101332.09;;;1.35;100.00
69766;BME280;57039;48.014;21.384;2024-02-15T02:40:05;101335.50;;;1.37;100.00
69766;BME280;57039;48.014;21.384;2024-02-15T02:41:10;101341.53;;;1.37;100.00
69766;BME280;57039;48.014;21.384;2024-02-15T02:42:13;101335.47;;;1.40;100.00
69766;BME280;57039;48.014;21.384;2024-02-15T02:43:16;101334.63;;;1.44;100.00
69766;BME280;57039;48.014;21.384;2024-02-15T02:44:19;101337.19;;;1.49;100.00
69766;BME280;57039;48.014;21.384;2024-02-15T02:45:22;101339.72;;;1.55;100.00
69766;BME280;57039;48.014;21.384;2024-02-15T02:46:25;101351.81;;;1.56;100.00
69766;BME280;57039;48.014;21.384;2024-02-15T02:47:28;101342.31;;;1.55;100.00
69766;BME280;57039;48.014;21.384;2024-02-15T02:48:32;101343.16;;;1.60;100.00
69766;BME280;57039;48.014;21.384;2024-02-15T02:49:35;101345.75;;;1.62;100.00
69766;BME280;57039;48.014;21.384;2024-02-15T02:50:38;101340.56;;;1.63;100.00
69766;BME280;57039;48.014;21.384;2024-02-15T02:51:42;101343.13;;;1.66;100.00
69766;BME280;57039;48.014;21.384;2024-02-15T02:52:45;101344.00;;;1.68;100.00
69766;BME280;57039;48.014;21.384;2024-02-15T02:53:50;101341.41;;;1.68;100.00
69766;BME280;57039;48.014;21.384;2024-02-15T02:54:53;101341.41;;;1.68;100.00
69766;BME280;57039;48.014;21.384;2024-02-15T02:55:56;101344.81;;;1.70;100.00
69766;BME280;57039;48.014;21.384;2024-02-15T02:56:59;101336.25;;;1.65;100.00
69766;BME280;57039;48.014;21.384;2024-02-15T02:58:02;101352.66;;;1.59;100.00
69766;BME280;57039;48.014;21.384;2024-02-15T02:59:08;101347.50;;;1.59;100.00
69766;BME280;57039;48.014;21.384;2024-02-15T03:00:12;101352.66;;;1.59;100.00
69766;BME280;57039;48.014;21.384;2024-02-15T03:01:18;101350.94;;;1.55;100.00
69766;BME280;57039;48.014;21.384;2024-02-15T03:02:21;101350.12;;;1.50;100.00
69766;BME280;57039;48.014;21.384;2024-02-15T03:03:25;101344.09;;;1.47;100.00
69766;BME280;57039;48.014;21.384;2024-02-15T03:04:32;101328.59;;;1.44;100.00
69766;BME280;57039;48.014;21.384;2024-02-15T03:05:35;101340.62;;;1.51;100.00
69766;BME280;57039;48.014;21.384;2024-02-15T03:06:38;101346.63;;;1.59;100.00
69766;BME280;57039;48.014;21.384;2024-02-15T03:07:45;101350.94;;;1.57;100.00
69766;BME280;57039;48.014;21.384;2024-02-15T03:08:48;101349.22;;;1.54;100.00
69766;BME280;57039;48.014;21.384;2024-02-15T03:09:51;101346.63;;;1.54;100.00
69766;BME280;57039;48.014;21.384;2024-02-15T03:10:53;101345.75;;;1.55;100.00
69766;BME280;57039;48.014;21.384;2024-02-15T03:11:56;101344.06;;;1.53;100.00
69766;BME280;57039;48.014;21.384;2024-02-15T03:13:00;101341.50;;;1.50;100.00
69766;BME280;57039;48.014;21.384;2024-02-15T03:14:03;101338.06;;;1.43;100.00
69766;BME280;57039;48.014;21.384;2024-02-15T03:15:09;101336.34;;;1.41;100.00
69766;BME280;57039;48.014;21.384;2024-02-15T03:16:14;101337.22;;;1.41;100.00
69766;BME280;57039;48.014;21.384;2024-02-15T03:17:19;101332.94;;;1.39;100.00
69766;BME280;57039;48.014;21.384;2024-02-15T03:18:22;101326.94;;;1.32;100.00
69766;BME280;57039;48.014;21.384;2024-02-15T03:19:26;101338.09;;;1.37;100.00
69766;BME280;57039;48.014;21.384;2024-02-15T03:20:29;101337.25;;;1.33;100.00
69766;BME280;57039;48.014;21.384;2024-02-15T03:21:32;101338.09;;;1.35;100.00
69766;BME280;57039;48.014;21.384;2024-02-15T03:22:35;101342.41;;;1.38;100.00
69766;BME280;57039;48.014;21.384;2024-02-15T03:23:40;101348.44;;;1.35;100.00
69766;BME280;57039;48.014;21.384;2024-02-15T03:24:43;101345.87;;;1.35;100.00
69766;BME280;57039;48.014;21.384;2024-02-15T03:25:46;101341.56;;;1.30;100.00
69766;BME280;57039;48.014;21.384;2024-02-15T03:26:51;101348.47;;;1.29;100.00
69766;BME280;57039;48.014;21.384;2024-02-15T03:27:57;101351.91;;;1.27;100.00
69766;BME280;57039;48.014;21.384;2024-02-15T03:29:00;101353.66;;;1.26;100.00
69766;BME280;57039;48.014;21.384;2024-02-15T03:30:03;101356.22;;;1.25;100.00
69766;BME280;57039;48.014;21.384;2024-02-15T03:31:07;101352.78;;;1.27;100.00
69766;BME280;57039;48.014;21.384;2024-02-15T03:32:10;101348.47;;;1.25;100.00
69766;BME280;57039;48.014;21.384;2024-02-15T03:33:13;101357.09;;;1.27;100.00
69766;BME280;57039;48.014;21.384;2024-02-15T03:34:17;101356.22;;;1.25;100.00
69766;BME280;57039;48.014;21.384;2024-02-15T03:35:21;101359.66;;;1.27;100.00
69766;BME280;57039;48.014;21.384;2024-02-15T03:36:27;101333.88;;;1.08;100.00
69766;BME280;57039;48.014;21.384;2024-02-15T03:37:32;101364.00;;;1.23;100.00
69766;BME280;57039;48.014;21.384;2024-02-15T03:38:37;101366.56;;;1.25;100.00
69766;BME280;57039;48.014;21.384;2024-02-15T03:39:40;101364.00;;;1.26;100.00
69766;BME280;57039;48.014;21.384;2024-02-15T03:40:43;101360.53;;;1.27;100.00
69766;BME280;57039;48.014;21.384;2024-02-15T03:41:46;101347.62;;;1.23;100.00
69766;BME280;57039;48.014;21.384;2024-02-15T03:42:49;101356.19;;;1.31;100.00
69766;BME280;57039;48.014;21.384;2024-02-15T03:43:55;101357.06;;;1.33;100.00
69766;BME280;57039;48.014;21.384;2024-02-15T03:44:57;101357.91;;;1.38;100.00
69766;BME280;57039;48.014;21.384;2024-02-15T03:46:00;101357.88;;;1.43;100.00
69766;BME280;57039;48.014;21.384;2024-02-15T03:47:04;101355.28;;;1.46;100.00
69766;BME280;57039;48.014;21.384;2024-02-15T03:48:07;101337.25;;;1.35;100.00
69766;BME280;57039;48.014;21.384;2024-02-15T03:49:12;101362.19;;;1.50;100.00
69766;BME280;57039;48.014;21.384;2024-02-15T03:50:15;101363.88;;;1.49;100.00
69766;BME280;57039;48.014;21.384;2024-02-15T03:51:18;101352.75;;;1.41;100.00
69766;BME280;57039;48.014;21.384;2024-02-15T03:52:25;101365.66;;;1.44;100.00
69766;BME280;57039;48.014;21.384;2024-02-15T03:53:28;101254.72;;;0.83;100.00
69766;BME280;57039;48.014;21.384;2024-02-15T03:54:33;101367.38;;;1.47;100.00
69766;BME280;57039;48.014;21.384;2024-02-15T03:55:35;101373.38;;;1.50;100.00
69766;BME280;57039;48.014;21.384;2024-02-15T03:56:49;101308.03;;;1.18;100.00
69766;BME280;57039;48.014;21.384;2024-02-15T03:57:54;101366.47;;;1.52;100.00
69766;BME280;57039;48.014;21.384;2024-02-15T03:58:59;101365.63;;;1.53;100.00
69766;BME280;57039;48.014;21.384;2024-02-15T04:00:03;101366.47;;;1.49;100.00
69766;BME280;57039;48.014;21.384;2024-02-15T04:01:11;101356.16;;;1.43;100.00
69766;BME280;57039;48.014;21.384;2024-02-15T04:02:16;101368.25;;;1.44;100.00
69766;BME280;57039;48.014;21.384;2024-02-15T04:03:19;101363.06;;;1.43;100.00
69766;BME280;57039;48.014;21.384;2024-02-15T04:04:22;101365.63;;;1.43;100.00
69766;BME280;57039;48.014;21.384;2024-02-15T04:05:25;101377.69;;;1.41;100.00
69766;BME280;57039;48.014;21.384;2024-02-15T04:06:28;101371.69;;;1.34;100.00
69766;BME280;57039;48.014;21.384;2024-02-15T04:07:34;101341.63;;;1.10;100.00
69766;BME280;57039;48.014;21.384;2024-02-15T04:08:36;101370.88;;;1.21;100.00
69766;BME280;57039;48.014;21.384;2024-02-15T04:09:42;101383.78;;;1.20;100.00
69766;BME280;57039;48.014;21.384;2024-02-15T04:10:45;101379.53;;;1.17;100.00
69766;BME280;57039;48.014;21.384;2024-02-15T04:11:51;101372.59;;;1.16;100.00
69766;BME280;57039;48.014;21.384;2024-02-15T04:12:57;101363.19;;;1.00;100.00
69766;BME280;57039;48.014;21.384;2024-02-15T04:14:00;101382.13;;;1.00;100.00
69766;BME280;57039;48.014;21.384;2024-02-15T04:15:04;101383.84;;;0.95;100.00
69766;BME280;57039;48.014;21.384;2024-02-15T04:16:15;101364.06;;;0.88;100.00
69766;BME280;57039;48.014;21.384;2024-02-15T04:17:19;101375.25;;;1.02;100.00
69766;BME280;57039;48.014;21.384;2024-02-15T04:18:24;101372.66;;;0.99;100.00
69766;BME280;57039;48.014;21.384;2024-02-15T04:19:27;101372.66;;;1.01;100.00
69766;BME280;57039;48.014;21.384;2024-02-15T04:20:30;101370.94;;;0.95;100.00
69766;BME280;57039;48.014;21.384;2024-02-15T04:21:33;101376.97;;;0.97;100.00
69766;BME280;57039;48.014;21.384;2024-02-15T04:22:36;101362.34;;;0.96;100.00
69766;BME280;57039;48.014;21.384;2024-02-15T04:23:40;101368.31;;;1.04;100.00
69766;BME280;57039;48.014;21.384;2024-02-15T04:24:43;101364.88;;;1.07;100.00
69766;BME280;57039;48.014;21.384;2024-02-15T04:25:48;101358.87;;;1.05;100.00
69766;BME280;57039;48.014;21.384;2024-02-15T04:26:53;101372.66;;;1.08;100.00
69766;BME280;57039;48.014;21.384;2024-02-15T04:27:56;101368.34;;;1.01;100.00
69766;BME280;57039;48.014;21.384;2024-02-15T04:29:01;101358.87;;;0.83;100.00
69766;BME280;57039;48.014;21.384;2024-02-15T04:30:03;101368.38;;;0.86;100.00
69766;BME280;57039;48.014;21.384;2024-02-15T04:31:07;101369.22;;;0.83;100.00
69766;BME280;57039;48.014;21.384;2024-02-15T04:32:15;101369.25;;;0.85;100.00
69766;BME280;57039;48.014;21.384;2024-02-15T04:33:18;101376.97;;;0.91;100.00
69766;BME280;57039;48.014;21.384;2024-02-15T04:34:22;101373.53;;;0.89;100.00
69766;BME280;57039;48.014;21.384;2024-02-15T04:35:25;101377.84;;;0.88;100.00
69766;BME280;57039;48.014;21.384;2024-02-15T04:36:30;101360.62;;;0.87;100.00
69766;BME280;57039;48.014;21.384;2024-02-15T04:37:36;101364.91;;;0.98;100.00
69766;BME280;57039;48.014;21.384;2024-02-15T04:38:40;101365.78;;;1.00;100.00
69766;BME280;57039;48.014;21.384;2024-02-15T04:39:43;101359.75;;;0.99;100.00
69766;BME280;57039;48.014;21.384;2024-02-15T04:40:46;101370.94;;;0.98;100.00
69766;BME280;57039;48.014;21.384;2024-02-15T04:41:51;101368.34;;;1.01;100.00
69766;BME280;57039;48.014;21.384;2024-02-15T04:42:54;101372.66;;;0.96;100.00
69766;BME280;57039;48.014;21.384;2024-02-15T04:43:56;101375.25;;;0.88;100.00
69766;BME280;57039;48.014;21.384;2024-02-15T04:45:00;101368.38;;;0.86;100.00
69766;BME280;57039;48.014;21.384;2024-02-15T04:46:05;101368.38;;;0.94;100.00
69766;BME280;57039;48.014;21.384;2024-02-15T04:47:10;101369.22;;;0.94;100.00
69766;BME280;57039;48.014;21.384;2024-02-15T04:48:13;101368.34;;;0.95;100.00
69766;BME280;57039;48.014;21.384;2024-02-15T04:49:17;101362.31;;;0.95;100.00
69766;BME280;57039;48.014;21.384;2024-02-15T04:50:21;101364.91;;;0.99;100.00
69766;BME280;57039;48.014;21.384;2024-02-15T04:51:24;101363.19;;;1.03;100.00
69766;BME280;57039;48.014;21.384;2024-02-15T04:52:29;101365.75;;;1.04;100.00
69766;BME280;57039;48.014;21.384;2024-02-15T04:53:32;101351.97;;;1.07;100.00
69766;BME280;57039;48.014;21.384;2024-02-15T04:54:35;101363.16;;;1.07;100.00
69766;BME280;57039;48.014;21.384;2024-02-15T04:55:38;101359.69;;;1.13;100.00
69766;BME280;57039;48.014;21.384;2024-02-15T04:56:40;101357.12;;;1.14;100.00
69766;BME280;57039;48.014;21.384;2024-02-15T04:57:43;101363.13;;;1.18;100.00
69766;BME280;57039;48.014;21.384;2024-02-15T04:58:46;101359.69;;;1.24;100.00
69766;BME280;57039;48.014;21.384;2024-02-15T04:59:50;101362.25;;;1.22;100.00
69766;BME280;57039;48.014;21.384;2024-02-15T05:00:53;101361.41;;;1.22;100.00
69766;BME280;57039;48.014;21.384;2024-02-15T05:02:01;101358.81;;;1.25;100.00
69766;BME280;57039;48.014;21.384;2024-02-15T05:03:04;101362.25;;;1.28;100.00
69766;BME280;57039;48.014;21.384;2024-02-15T05:04:07;101363.97;;;1.31;100.00
69766;BME280;57039;48.014;21.384;2024-02-15T05:05:10;101362.22;;;1.31;100.00
69766;BME280;57039;48.014;21.384;2024-02-15T05:06:15;101358.78;;;1.34;100.00
69766;BME280;57039;48.014;21.384;2024-02-15T05:07:18;101352.72;;;1.40;100.00
69766;BME280;57039;48.014;21.384;2024-02-15T05:08:21;101361.34;;;1.40;100.00
69766;BME280;57039;48.014;21.384;2024-02-15T05:09:24;101363.09;;;1.33;100.00
69766;BME280;57039;48.014;21.384;2024-02-15T05:10:27;101369.13;;;1.34;100.00
69766;BME280;57039;48.014;21.384;2024-02-15T05:11:30;101366.53;;;1.34;100.00
69766;BME280;57039;48.014;21.384;2024-02-15T05:12:33;101362.22;;;1.34;100.00
69766;BME280;57039;48.014;21.384;2024-02-15T05:13:36;101373.44;;;1.33;100.00
69766;BME280;57039;48.014;21.384;2024-02-15T05:14:38;101371.72;;;1.32;100.00
69766;BME280;57039;48.014;21.384;2024-02-15T05:15:42;101368.28;;;1.35;100.00
69766;BME280;57039;48.014;21.384;2024-02-15T05:16:46;101369.16;;;1.29;100.00
69766;BME280;57039;48.014;21.384;2024-02-15T05:17:50;101366.56;;;1.19;100.00
69766;BME280;57039;48.014;21.384;2024-02-15T05:18:53;101378.63;;;1.20;100.00
69766;BME280;57039;48.014;21.384;2024-02-15T05:19:56;101384.72;;;1.11;100.00
69766;BME280;57039;48.014;21.384;2024-02-15T05:21:02;101387.28;;;1.00;100.00
69766;BME280;57039;48.014;21.384;2024-02-15T05:22:06;101386.47;;;0.87;100.00
69766;BME280;57039;48.014;21.384;2024-02-15T05:23:09;101389.03;;;0.86;100.00
69766;BME280;57039;48.014;21.384;2024-02-15T05:24:16;101391.62;;;0.81;100.00
69766;BME280;57039;48.014;21.384;2024-02-15T05:25:20;101388.16;;;0.72;100.00
69766;BME280;57039;48.014;21.384;2024-02-15T05:26:28;101389.91;;;0.66;100.00
69766;BME280;57039;48.014;21.384;2024-02-15T05:27:31;101392.50;;;0.66;100.00
69766;BME280;57039;48.014;21.384;2024-02-15T05:28:34;101399.37;;;0.69;100.00
69766;BME280;57039;48.014;21.384;2024-02-15T05:29:37;101395.94;;;0.70;100.00
69766;BME280;57039;48.014;21.384;2024-02-15T05:30:42;101399.37;;;0.69;100.00
69766;BME280;57039;48.014;21.384;2024-02-15T05:31:44;101400.22;;;0.71;100.00